createdAt,value
2022-09-17T00:00:21.982Z,97747.06
2022-09-17T00:04:35.367Z,97754.34
2022-09-17T00:13:26.712Z,97758.97
2022-09-17T00:17:01.756Z,97746.56
2022-09-17T00:19:51.244Z,97744.72
2022-09-17T00:22:26.367Z,97745.41
2022-09-17T00:25:15.476Z,97740.09
2022-09-17T00:28:04.731Z,97736.44
2022-09-17T00:30:53.887Z,97747.22
2022-09-17T00:33:44.433Z,97745.41
2022-09-17T00:37:00.865Z,97736.44
2022-09-17T00:39:50.040Z,97740.09
2022-09-17T00:42:39.456Z,97741.25
2022-09-17T00:45:32.120Z,97746.56
2022-09-17T00:48:21.278Z,97736.78
2022-09-17T00:51:15.301Z,97731.63
2022-09-17T00:54:10.805Z,97742.06
2022-09-17T00:57:00.295Z,97734.28
2022-09-17T00:59:50.280Z,97744.72
2022-09-17T01:02:39.753Z,97739.56
2022-09-17T01:05:43.763Z,97748.53
2022-09-17T01:08:45.826Z,97753.00
2022-09-17T01:11:54.545Z,97748.03
2022-09-17T01:15:03.223Z,97751.50
2022-09-17T01:18:56.933Z,97762.25
2022-09-17T01:21:58.879Z,97775.00
2022-09-17T01:25:07.027Z,97769.03
2022-09-17T01:28:35.992Z,97775.63
2022-09-17T01:31:37.247Z,97780.94
2022-09-17T01:34:35.142Z,97783.06
2022-09-17T01:37:34.559Z,97778.91
2022-09-17T01:40:32.382Z,97776.41
2022-09-17T01:43:28.938Z,97781.19
2022-09-17T01:46:26.638Z,97777.88
2022-09-17T01:49:18.552Z,97783.50
2022-09-17T01:52:16.089Z,97784.59
2022-09-17T01:55:11.318Z,97789.09
2022-09-17T01:58:12.024Z,97788.56
2022-09-17T02:01:06.627Z,97783.56
2022-09-17T02:04:03.458Z,97785.56
2022-09-17T02:07:04.340Z,97787.22
2022-09-17T02:13:24.253Z,97798.84
2022-09-17T02:16:21.223Z,97794.88
2022-09-17T02:19:19.101Z,97797.22
2022-09-17T02:22:21.857Z,97797.59
2022-09-17T02:25:21.371Z,97789.19
2022-09-17T02:28:20.935Z,97783.44
2022-09-17T02:31:32.382Z,97784.06
2022-09-17T02:34:47.535Z,97775.97
2022-09-17T02:37:38.044Z,97772.84
2022-09-17T02:40:33.141Z,97762.78
2022-09-17T02:43:38.010Z,97757.31
2022-09-17T02:47:12.927Z,97757.31
2022-09-17T02:50:44.462Z,97755.31
2022-09-17T02:54:01.037Z,97758.97
2022-09-17T02:57:02.736Z,97753.50
2022-09-17T03:00:17.306Z,97755.00
2022-09-17T03:03:49.249Z,97759.34
2022-09-17T03:07:34.729Z,97745.94
2022-09-17T03:13:38.772Z,97746.25
2022-09-17T03:16:27.874Z,97733.84
2022-09-17T03:19:44.208Z,97728.38
2022-09-17T03:22:53.508Z,97729.88
2022-09-17T03:26:34.069Z,97722.59
2022-09-17T03:29:28.309Z,97723.41
2022-09-17T03:32:17.428Z,97724.41
2022-09-17T03:35:07.084Z,97717.31
2022-09-17T03:37:56.121Z,97732.38
2022-09-17T03:40:45.361Z,97731.53
2022-09-17T03:43:35.183Z,97736.03
2022-09-17T03:46:26.006Z,97736.84
2022-09-17T03:49:15.189Z,97732.53
2022-09-17T03:52:04.568Z,97730.88
2022-09-17T03:54:53.691Z,97733.69
2022-09-17T03:57:45.898Z,97727.88
2022-09-17T04:00:37.154Z,97733.50
2022-09-17T04:03:34.343Z,97740.09
2022-09-17T04:06:23.619Z,97742.06
2022-09-17T04:09:12.805Z,97736.13
2022-09-17T04:12:01.928Z,97739.94
2022-09-17T04:14:50.980Z,97736.59
2022-09-17T04:18:30.935Z,97740.09
2022-09-17T04:21:20.317Z,97730.13
2022-09-17T04:24:09.715Z,97736.44
2022-09-17T04:26:58.798Z,97725.69
2022-09-17T04:29:51.314Z,97730.97
2022-09-17T04:32:40.651Z,97728.16
2022-09-17T04:35:31.640Z,97720.06
2022-09-17T04:38:22.176Z,97722.56
2022-09-17T04:41:11.298Z,97723.34
2022-09-17T04:44:00.495Z,97719.75
2022-09-17T04:46:59.328Z,97733.66
2022-09-17T04:49:50.164Z,97729.19
2022-09-17T04:52:44.030Z,97732.84
2022-09-17T04:55:33.130Z,97729.19
2022-09-17T04:58:46.942Z,97735.81
2022-09-17T05:01:36.204Z,97734.84
2022-09-17T05:04:28.434Z,97741.81
2022-09-17T05:07:17.674Z,97744.13
2022-09-17T05:10:33.457Z,97744.94
2022-09-17T05:13:22.646Z,97749.13
2022-09-17T05:16:11.876Z,97749.94
2022-09-17T05:19:00.996Z,97752.41
2022-09-17T05:21:50.118Z,97764.72
2022-09-17T05:24:39.724Z,97762.22
2022-09-17T05:27:30.234Z,97771.97
2022-09-17T05:30:19.530Z,97778.13
2022-09-17T05:33:08.788Z,97777.28
2022-09-17T05:36:08.151Z,97776.13
2022-09-17T05:38:57.303Z,97775.31
2022-09-17T05:41:46.447Z,97770.00
2022-09-17T05:44:37.167Z,97773.63
2022-09-17T05:47:28.140Z,97778.94
2022-09-17T05:50:17.432Z,97771.97
2022-09-17T05:53:09.054Z,97773.13
2022-09-17T05:55:58.755Z,97772.28
2022-09-17T05:58:48.539Z,97770.66
2022-09-17T06:01:39.098Z,97768.31
2022-09-17T06:04:31.534Z,97769.97
2022-09-17T06:07:23.224Z,97757.56
2022-09-17T06:10:16.327Z,97767.84
2022-09-17T06:13:05.840Z,97779.94
2022-09-17T06:15:55.543Z,97771.97
2022-09-17T06:18:46.006Z,97778.28
2022-09-17T06:21:35.185Z,97776.97
2022-09-17T06:24:24.261Z,97776.66
2022-09-17T06:27:13.289Z,97791.41
2022-09-17T06:30:04.675Z,97785.13
2022-09-17T06:32:53.770Z,97791.91
2022-09-17T06:35:44.233Z,97791.91
2022-09-17T06:38:35.948Z,97795.22
2022-09-17T06:41:25.061Z,97804.88
2022-09-17T06:44:14.170Z,97796.75
2022-09-17T06:47:03.467Z,97794.59
2022-09-17T06:49:52.698Z,97803.22
2022-09-17T06:52:50.300Z,97810.19
2022-09-17T06:55:39.408Z,97811.88
2022-09-17T06:58:31.632Z,97821.47
2022-09-17T07:01:20.937Z,97817.97
2022-09-17T07:04:10.176Z,97825.94
2022-09-17T07:06:59.241Z,97828.44
2022-09-17T07:09:49.821Z,97818.50
2022-09-17T07:12:46.620Z,97832.44
2022-09-17T07:15:38.385Z,97826.31
2022-09-17T07:18:28.632Z,97827.94
2022-09-17T07:21:17.793Z,97840.41
2022-09-17T07:24:07.464Z,97834.09
2022-09-17T07:26:59.312Z,97844.53
2022-09-17T07:29:48.401Z,97838.94
2022-09-17T07:32:37.844Z,97860.81
2022-09-17T07:35:26.970Z,97851.88
2022-09-17T07:38:16.152Z,97856.03
2022-09-17T07:41:08.802Z,97861.31
2022-09-17T07:44:02.449Z,97865.63
2022-09-17T07:46:51.688Z,97870.78
2022-09-17T07:49:40.914Z,97864.34
2022-09-17T07:52:30.057Z,97868.34
2022-09-17T07:55:19.174Z,97866.47
2022-09-17T07:58:08.399Z,97883.25
2022-09-17T08:01:03.718Z,97879.44
2022-09-17T08:03:55.430Z,97886.25
2022-09-17T08:06:48.266Z,97890.56
2022-09-17T08:09:37.371Z,97888.59
2022-09-17T08:12:26.566Z,97891.25
2022-09-17T08:15:16.038Z,97891.91
2022-09-17T08:18:06.724Z,97891.75
2022-09-17T08:20:59.293Z,97898.75
2022-09-17T08:23:48.731Z,97904.53
2022-09-17T08:26:38.389Z,97911.50
2022-09-17T08:29:29.326Z,97902.25
2022-09-17T08:32:21.244Z,97902.72
2022-09-17T08:35:12.701Z,97903.25
2022-09-17T08:38:01.837Z,97904.59
2022-09-17T08:41:09.426Z,97911.91
2022-09-17T08:44:17.415Z,97909.97
2022-09-17T08:47:18.601Z,97915.16
2022-09-17T08:50:18.085Z,97914.03
2022-09-17T08:53:38.580Z,97917.84
2022-09-17T08:56:28.224Z,97906.41
2022-09-17T08:59:36.077Z,97905.91
2022-09-17T09:02:46.942Z,97912.38
2022-09-17T09:05:46.067Z,97909.56
2022-09-17T09:08:42.948Z,97900.06
2022-09-17T09:11:33.857Z,97904.00
2022-09-17T09:14:29.015Z,97904.63
2022-09-17T09:17:21.521Z,97892.63
2022-09-17T09:20:18.809Z,97907.59
2022-09-17T09:23:20.238Z,97907.88
2022-09-17T09:26:18.725Z,97911.78
2022-09-17T09:29:22.651Z,97904.09
2022-09-17T09:32:30.922Z,97905.88
2022-09-17T09:35:24.219Z,97904.00
2022-09-17T09:38:33.976Z,97891.91
2022-09-17T09:41:33.179Z,97893.53
2022-09-17T09:44:26.015Z,97890.66
2022-09-17T09:47:34.257Z,97884.66
2022-09-17T09:51:05.586Z,97886.91
2022-09-17T09:54:21.125Z,97883.56
2022-09-17T09:57:16.064Z,97881.09
2022-09-17T10:00:29.052Z,97882.97
2022-09-17T10:03:22.650Z,97883.13
2022-09-17T10:06:14.183Z,97879.72
2022-09-17T10:09:17.800Z,97881.59
2022-09-17T10:12:32.516Z,97882.75
2022-09-17T10:15:27.927Z,97877.06
2022-09-17T10:18:20.457Z,97865.94
2022-09-17T10:21:22.159Z,97874.06
2022-09-17T10:24:25.709Z,97861.19
2022-09-17T10:27:19.077Z,97860.88
2022-09-17T10:30:18.409Z,97852.72
2022-09-17T10:33:25.758Z,97838.16
2022-09-17T10:36:15.502Z,97835.06
2022-09-17T10:39:32.517Z,97840.22
2022-09-17T10:42:22.026Z,97838.78
2022-09-17T10:45:26.481Z,97842.50
2022-09-17T10:48:20.882Z,97844.31
2022-09-17T10:51:12.334Z,97844.28
2022-09-17T10:54:24.401Z,97837.66
2022-09-17T10:57:28.807Z,97830.75
2022-09-17T11:00:20.981Z,97844.34
2022-09-17T11:04:00.504Z,97834.81
2022-09-17T11:07:20.863Z,97832.38
2022-09-17T11:10:23.079Z,97826.94
2022-09-17T11:13:31.284Z,97819.78
2022-09-17T11:16:40.969Z,97817.47
2022-09-17T11:19:46.904Z,97806.91
2022-09-17T11:22:56.698Z,97807.66
2022-09-17T11:25:58.334Z,97806.19
2022-09-17T11:29:09.151Z,97799.84
2022-09-17T11:32:11.755Z,97794.72
2022-09-17T11:35:08.770Z,97791.44
2022-09-17T11:38:06.071Z,97807.41
2022-09-17T11:41:03.586Z,97801.53
2022-09-17T11:44:09.852Z,97791.41
2022-09-17T11:47:08.898Z,97792.69
2022-09-17T11:50:07.607Z,97786.53
2022-09-17T11:53:08.040Z,97784.91
2022-09-17T11:56:03.458Z,97807.41
2022-09-17T11:59:03.228Z,97817.16
2022-09-17T12:01:58.642Z,97808.25
2022-09-17T12:04:59.867Z,97813.09
2022-09-17T12:07:57.722Z,97801.94
2022-09-17T12:10:54.260Z,97808.25
2022-09-17T12:13:51.082Z,97807.19
2022-09-17T12:16:48.436Z,97804.13
2022-09-17T12:19:45.709Z,97799.44
2022-09-17T12:22:41.761Z,97802.94
2022-09-17T12:25:46.143Z,97807.28
2022-09-17T12:28:49.963Z,97798.13
2022-09-17T12:31:49.968Z,97793.53
2022-09-17T12:34:54.043Z,97780.03
2022-09-17T12:38:06.149Z,97778.59
2022-09-17T12:41:08.158Z,97775.75
2022-09-17T12:44:27.185Z,97773.94
2022-09-17T12:47:53.164Z,97775.84
2022-09-17T12:51:06.231Z,97780.31
2022-09-17T12:54:10.490Z,97767.06
2022-09-17T12:57:12.492Z,97767.44
2022-09-17T13:00:09.719Z,97768.50
2022-09-17T13:03:12.323Z,97766.28
2022-09-17T13:06:52.273Z,97772.09
2022-09-17T13:10:27.785Z,97766.28
2022-09-17T13:13:38.412Z,97774.63
2022-09-17T13:16:38.987Z,97782.94
2022-09-17T13:19:42.847Z,97811.03
2022-09-17T13:22:34.754Z,97843.09
2022-09-17T13:25:27.937Z,97842.88
2022-09-17T13:28:17.569Z,97832.88
2022-09-17T13:31:08.719Z,97850.47
2022-09-17T13:33:59.903Z,97844.06
2022-09-17T13:36:52.891Z,97815.00
2022-09-17T13:39:47.291Z,97795.22
2022-09-17T13:42:49.068Z,97793.25
2022-09-17T13:46:15.565Z,97800.09
2022-09-17T13:49:14.780Z,97795.56
2022-09-17T13:52:11.547Z,97802.13
2022-09-17T13:55:02.798Z,97794.06
2022-09-17T13:57:53.455Z,97788.38
2022-09-17T14:00:56.504Z,97783.13
2022-09-17T14:03:53.146Z,97790.44
2022-09-17T14:06:54.487Z,97790.56
2022-09-17T14:09:54.939Z,97780.13
2022-09-17T14:13:02.041Z,97777.91
2022-09-17T14:16:04.124Z,97782.47
2022-09-17T14:19:02.719Z,97785.41
2022-09-17T14:22:03.425Z,97767.53
2022-09-17T14:24:55.737Z,97766.09
2022-09-17T14:28:22.547Z,97772.31
2022-09-17T14:31:20.105Z,97769.94
2022-09-17T14:34:21.745Z,97757.22
2022-09-17T14:37:17.266Z,97761.53
2022-09-17T14:40:17.402Z,97770.84
2022-09-17T14:43:06.537Z,97759.97
2022-09-17T14:45:56.910Z,97758.16
2022-09-17T14:48:45.987Z,97755.50
2022-09-17T14:51:41.691Z,97752.22
2022-09-17T14:54:35.986Z,97758.22
2022-09-17T14:57:54.211Z,97747.50
2022-09-17T15:00:53.863Z,97750.41
2022-09-17T15:03:44.025Z,97747.50
2022-09-17T15:06:33.283Z,97752.03
2022-09-17T15:09:27.709Z,97743.97
2022-09-17T15:12:19.957Z,97744.19
2022-09-17T15:15:22.176Z,97744.19
2022-09-17T15:18:15.753Z,97742.13
2022-09-17T15:21:12.733Z,97736.97
2022-09-17T15:24:15.138Z,97747.50
2022-09-17T15:27:13.525Z,97745.84
2022-09-17T15:30:07.887Z,97749.56
2022-09-17T15:33:00.384Z,97748.50
2022-09-17T15:36:14.289Z,97740.69
2022-09-17T15:39:32.543Z,97740.84
2022-09-17T15:42:26.944Z,97751.41
2022-09-17T15:45:21.971Z,97744.41
2022-09-17T15:48:35.463Z,97746.66
2022-09-17T15:51:28.244Z,97749.16
2022-09-17T15:54:30.669Z,97758.69
2022-09-17T15:57:26.617Z,97748.38
2022-09-17T16:00:17.939Z,97752.28
2022-09-17T16:04:18.441Z,97750.38
2022-09-17T16:07:30.873Z,97748.06
2022-09-17T16:10:20.551Z,97747.44
2022-09-17T16:13:13.589Z,97755.38
2022-09-17T16:16:03.515Z,97764.38
2022-09-17T16:18:52.950Z,97763.03
2022-09-17T16:21:45.427Z,97764.41
2022-09-17T16:24:34.989Z,97763.03
2022-09-17T16:27:30.592Z,97769.53
2022-09-17T16:30:24.277Z,97771.84
2022-09-17T16:33:15.611Z,97779.56
2022-09-17T16:36:05.114Z,97788.53
2022-09-17T16:38:54.351Z,97802.31
2022-09-17T16:41:43.950Z,97804.28
2022-09-17T16:44:34.292Z,97810.94
2022-09-17T16:47:24.871Z,97827.03
2022-09-17T16:50:16.797Z,97825.19
2022-09-17T16:53:05.946Z,97831.09
2022-09-17T16:55:55.060Z,97835.19
2022-09-17T16:58:44.453Z,97827.72
2022-09-17T17:01:33.516Z,97822.88
2022-09-17T17:04:24.505Z,97823.53
2022-09-17T17:07:13.659Z,97819.81
2022-09-17T17:10:03.487Z,97833.78
2022-09-17T17:12:52.612Z,97838.84
2022-09-17T17:15:42.260Z,97845.28
2022-09-17T17:18:31.619Z,97854.84
2022-09-17T17:21:22.204Z,97866.91
2022-09-17T17:24:12.442Z,97866.31
2022-09-17T17:27:23.666Z,97878.53
2022-09-17T17:30:17.492Z,97871.94
2022-09-17T17:33:06.991Z,97879.97
2022-09-17T17:35:56.352Z,97880.97
2022-09-17T17:38:49.693Z,97876.84
2022-09-17T17:41:38.819Z,97877.69
2022-09-17T17:44:28.086Z,97882.03
2022-09-17T17:47:17.216Z,97871.63
2022-09-17T17:50:08.589Z,97875.75
2022-09-17T17:52:58.852Z,97882.13
2022-09-17T17:55:59.613Z,97879.28
2022-09-17T17:58:49.016Z,97878.47
2022-09-17T18:01:38.574Z,97888.59
2022-09-17T18:04:27.951Z,97884.13
2022-09-17T18:07:17.210Z,97890.94
2022-09-17T18:10:07.651Z,97891.28
2022-09-17T18:12:58.327Z,97893.13
2022-09-17T18:16:14.027Z,97890.63
2022-09-17T18:19:18.363Z,97900.41
2022-09-17T18:22:07.601Z,97895.75
2022-09-17T18:24:58.748Z,97909.69
2022-09-17T18:27:47.877Z,97911.50
2022-09-17T18:30:39.000Z,97907.69
2022-09-17T18:33:28.624Z,97902.97
2022-09-17T18:36:17.888Z,97919.56
2022-09-17T18:39:57.121Z,97922.00
2022-09-17T18:42:19.413Z,97924.50
2022-09-17T18:45:10.210Z,97935.59
2022-09-17T18:48:00.691Z,97940.53
2022-09-17T18:50:58.490Z,97945.66
2022-09-17T18:53:51.503Z,97946.63
2022-09-17T18:56:41.978Z,97950.06
2022-09-17T18:59:31.326Z,97949.88
2022-09-17T19:02:20.433Z,97951.47
2022-09-17T19:05:11.758Z,97959.38
2022-09-17T19:08:00.914Z,97955.00
2022-09-17T19:10:52.173Z,97958.44
2022-09-17T19:13:43.861Z,97958.59
2022-09-17T19:16:33.120Z,97950.78
2022-09-17T19:19:22.304Z,97956.94
2022-09-17T19:22:12.666Z,97955.28
2022-09-17T19:25:01.737Z,97956.72
2022-09-17T19:27:54.070Z,97965.16
2022-09-17T19:30:43.175Z,97963.78
2022-09-17T19:33:32.393Z,97965.63
2022-09-17T19:36:22.672Z,97964.09
2022-09-17T19:39:13.926Z,97962.13
2022-09-17T19:42:02.998Z,97958.47
2022-09-17T19:44:53.128Z,97966.59
2022-09-17T19:47:42.358Z,97971.06
2022-09-17T19:50:32.238Z,97969.38
2022-09-17T19:53:21.568Z,97971.72
2022-09-17T19:56:14.702Z,97969.09
2022-09-17T19:59:03.633Z,97972.72
2022-09-17T20:02:08.621Z,97962.97
2022-09-17T20:04:57.676Z,97970.78
2022-09-17T20:07:47.948Z,97966.44
2022-09-17T20:10:38.411Z,97968.56
2022-09-17T20:13:28.934Z,97966.09
2022-09-17T20:16:21.648Z,97973.03
2022-09-17T20:19:17.156Z,97975.00
2022-09-17T20:22:31.992Z,97976.69
2022-09-17T20:25:21.856Z,97981.44
2022-09-17T20:28:11.281Z,97983.56
2022-09-17T20:31:08.469Z,97979.56
2022-09-17T20:34:00.797Z,97984.84
2022-09-17T20:36:55.174Z,97983.19
2022-09-17T20:39:55.805Z,97983.50
2022-09-17T20:42:44.958Z,97987.44
2022-09-17T20:45:34.222Z,97992.75
2022-09-17T20:48:24.655Z,97981.63
2022-09-17T21:02:53.895Z,97999.41
2022-09-17T21:05:44.461Z,98002.22
2022-09-17T21:08:51.337Z,98010.16
2022-09-17T21:12:12.158Z,98005.16
2022-09-17T21:18:09.760Z,98009.09
2022-09-17T21:21:03.176Z,98003.09
2022-09-17T21:24:02.344Z,98014.69
2022-09-17T21:26:55.262Z,98011.50
2022-09-17T21:29:44.451Z,98017.09
2022-09-17T21:32:33.916Z,98009.59
2022-09-17T21:35:25.414Z,98009.44
2022-09-17T21:38:15.981Z,98017.53
2022-09-17T21:41:09.024Z,98015.88
2022-09-17T21:43:58.239Z,98015.88
2022-09-17T21:46:59.354Z,98029.81
2022-09-17T21:49:48.547Z,98027.84
2022-09-17T21:52:37.606Z,98025.88
2022-09-17T21:55:28.099Z,98022.25
2022-09-17T21:58:32.588Z,98026.44
2022-09-17T22:01:25.099Z,98028.94
2022-09-17T22:04:17.302Z,98031.41
2022-09-17T22:07:06.479Z,98031.41
2022-09-17T22:09:55.568Z,98029.59
2022-09-17T22:12:45.991Z,98037.53
2022-09-17T22:15:35.426Z,98042.00
2022-09-17T22:18:25.202Z,98035.88
2022-09-17T22:21:31.430Z,98045.47
2022-09-17T22:24:36.265Z,98035.59
2022-09-17T22:27:26.523Z,98038.09
2022-09-17T22:30:19.435Z,98033.59
2022-09-17T22:33:08.647Z,98031.78
2022-09-17T22:36:04.627Z,98028.31
2022-09-17T22:38:56.129Z,98030.28
2022-09-17T22:41:45.759Z,98035.59
2022-09-17T22:44:35.057Z,98030.00
2022-09-17T22:47:25.950Z,98033.44
2022-09-17T22:50:15.189Z,98030.94
2022-09-17T22:53:04.338Z,98030.81
2022-09-17T22:55:58.098Z,98029.16
2022-09-17T22:58:48.143Z,98026.66
2022-09-17T23:01:40.787Z,98030.28
2022-09-17T23:04:31.366Z,98026.78
2022-09-17T23:07:20.468Z,98029.59
2022-09-17T23:10:09.942Z,98044.63
2022-09-17T23:12:59.010Z,98044.81
2022-09-17T23:15:48.340Z,98039.53
2022-09-17T23:18:39.137Z,98042.47
2022-09-17T23:21:29.623Z,98041.06
2022-09-17T23:24:22.106Z,98043.72
2022-09-17T23:27:11.180Z,98050.16
2022-09-17T23:30:00.232Z,98042.38
2022-09-17T23:32:54.978Z,98049.63
2022-09-17T23:35:44.083Z,98047.94
2022-09-17T23:38:35.778Z,98048.94
2022-09-17T23:41:27.400Z,98052.72
2022-09-17T23:47:22.803Z,98060.81
2022-09-17T23:50:11.947Z,98053.84
2022-09-17T23:53:00.974Z,98055.81
2022-09-17T23:55:52.383Z,98050.66
2022-09-17T23:58:42.120Z,98045.53
